Time;durP1;ratioP1;P1;durP2;ratioP2;P2;SDS_P1;SDS_P2;PMS_P1;PMS_P2;Temp;Humidity;BMP_temperature;BMP_pressure;BME280_temperature;BME280_humidity;BME280_pressure;Samples;Min_cycle;Max_cycle;Signal;HPM_P1;HPM_P2
2021/03/18 00:01:50;;;;;;;50.00;11.75;;;;;;;8.73;64.87;102439.44;3945997;27;15070231;-74
2021/03/18 00:04:17;;;;;;;41.50;11.18;;;;;;;8.75;64.94;102442.69;4402617;32;20437;-74
2021/03/18 00:06:44;;;;;;;38.80;10.35;;;;;;;8.80;64.64;102453.59;4404029;32;20077;-75
2021/03/18 00:09:13;;;;;;;36.28;10.40;;;;;;;8.74;64.81;102447.47;4406708;32;20072;-75
2021/03/18 00:11:41;;;;;;;43.15;11.10;;;;;;;8.66;65.22;102451.44;4407276;32;20053;-74
2021/03/18 00:14:09;;;;;;;32.85;10.30;;;;;;;8.66;65.21;102437.41;4404783;32;20066;-75
2021/03/18 00:16:35;;;;;;;40.35;10.05;;;;;;;8.63;64.93;102437.34;4405979;32;20099;-75
2021/03/18 00:19:02;;;;;;;38.70;10.27;;;;;;;8.64;65.12;102436.97;4402666;32;20557;-75
2021/03/18 00:21:27;;;;;;;39.92;10.13;;;;;;;8.64;65.34;102438.94;4401775;32;20066;-75
2021/03/18 00:23:53;;;;;;;29.25;10.10;;;;;;;8.62;65.23;102433.72;4405533;32;20120;-75
2021/03/18 00:26:22;;;;;;;40.97;10.43;;;;;;;8.65;65.23;102432.16;4402645;32;20362;-75
2021/03/18 00:28:47;;;;;;;38.10;9.25;;;;;;;8.70;65.29;102427.00;4402970;32;20094;-75
2021/03/18 00:31:13;;;;;;;32.00;9.75;;;;;;;8.62;65.32;102428.09;4400245;32;20133;-74
2021/03/18 00:33:39;;;;;;;31.45;9.63;;;;;;;8.49;65.86;102434.38;4406896;32;20042;-75
2021/03/18 00:36:05;;;;;;;37.42;11.05;;;;;;;8.36;65.99;102425.41;4392656;32;20378;-76
2021/03/18 00:38:31;;;;;;;32.03;9.15;;;;;;;8.36;66.54;102435.81;4403843;32;20027;-76
2021/03/18 00:41:01;;;;;;;40.08;9.65;;;;;;;8.34;66.41;102432.63;4400691;32;20120;-74
2021/03/18 00:43:27;;;;;;;39.40;11.30;;;;;;;8.30;66.60;102423.31;4405130;32;20090;-75
2021/03/18 00:45:53;;;;;;;33.45;9.65;;;;;;;8.37;66.58;102421.41;4402399;32;20091;-75
2021/03/18 00:48:22;;;;;;;34.55;8.48;;;;;;;8.30;66.72;102417.72;4402985;32;20580;-77
2021/03/18 00:50:52;;;;;;;32.72;8.05;;;;;;;8.31;66.61;102417.34;4407151;32;20078;-77
2021/03/18 00:53:21;;;;;;;38.78;9.30;;;;;;;8.18;67.03;102408.34;4403136;32;20091;-77
2021/03/18 00:55:48;;;;;;;35.35;8.35;;;;;;;8.12;67.03;102406.25;4406115;32;20092;-77
2021/03/18 00:58:14;;;;;;;36.53;8.25;;;;;;;8.11;67.16;102407.44;4398571;32;20061;-74
2021/03/18 01:00:47;;;;;;;35.25;8.70;;;;;;;8.11;67.04;102408.25;4407607;32;20125;-76
2021/03/18 01:03:13;;;;;;;31.95;8.35;;;;;;;8.14;66.97;102410.28;4402871;32;20084;-77
2021/03/18 01:08:19;;;;;;;34.50;9.48;;;;;;;8.50;66.39;102403.13;3957400;32;15724622;-75
2021/03/18 01:10:50;;;;;;;36.58;9.75;;;;;;;8.50;66.39;102403.13;4425394;32;20091;-75
2021/03/18 01:13:19;;;;;;;40.38;8.55;;;;;;;8.06;67.31;102396.56;4438323;32;20144;-75
2021/03/18 01:15:48;;;;;;;33.03;8.43;;;;;;;8.05;67.29;102392.97;4438550;32;20462;-76
2021/03/18 01:18:14;;;;;;;30.45;7.85;;;;;;;8.02;67.18;102388.12;4433666;32;20241;-75
2021/03/18 01:20:40;;;;;;;31.70;7.45;;;;;;;8.03;66.94;102386.94;4435912;32;21111;-75
2021/03/18 01:23:06;;;;;;;35.40;8.13;;;;;;;7.97;67.30;102396.03;4439040;32;20063;-76
2021/03/18 01:25:32;;;;;;;23.70;7.32;;;;;;;7.91;67.40;102386.34;4434621;32;20029;-76
2021/03/18 01:27:58;;;;;;;35.85;8.35;;;;;;;7.88;67.68;102387.09;4435249;32;20042;-76
2021/03/18 01:30:24;;;;;;;34.00;8.82;;;;;;;7.69;68.15;102381.66;4434139;32;20033;-76
2021/03/18 01:32:50;;;;;;;33.65;7.97;;;;;;;7.61;68.69;102383.53;4435808;32;20084;-76
2021/03/18 01:35:19;;;;;;;29.40;7.55;;;;;;;7.61;68.75;102386.34;4436948;32;20057;-75
2021/03/18 01:37:46;;;;;;;30.00;6.95;;;;;;;7.59;68.82;102390.72;4436295;32;20434;-75
2021/03/18 01:40:18;;;;;;;26.92;6.40;;;;;;;7.59;68.95;102393.53;4433956;32;20029;-76
2021/03/18 01:42:44;;;;;;;28.90;6.30;;;;;;;7.61;68.87;102391.94;4423968;32;20172;-75
2021/03/18 01:45:11;;;;;;;25.02;6.35;;;;;;;7.62;68.57;102398.38;4422471;32;20085;-76
2021/03/18 01:47:40;;;;;;;36.63;7.03;;;;;;;7.63;68.18;102408.38;4434540;32;20033;-76
2021/03/18 01:50:08;;;;;;;27.92;6.55;;;;;;;7.55;68.29;102401.06;4434028;32;20104;-75
2021/03/18 01:52:34;;;;;;;28.90;6.97;;;;;;;7.52;68.68;102401.84;4431407;32;20106;-76
2021/03/18 01:55:00;;;;;;;22.20;6.12;;;;;;;7.42;68.65;102403.28;4434894;32;20029;-75
2021/03/18 01:57:26;;;;;;;24.12;6.03;;;;;;;7.36;69.01;102401.16;4438691;32;20073;-76
2021/03/18 01:59:53;;;;;;;32.92;5.87;;;;;;;7.27;69.24;102395.06;4435979;32;22106;-75
2021/03/18 02:02:19;;;;;;;25.90;6.18;;;;;;;7.17;69.93;102398.47;4432532;32;20107;-75
2021/03/18 02:04:46;;;;;;;27.10;6.03;;;;;;;7.12;70.27;102396.00;4437295;32;20038;-75
2021/03/18 02:07:12;;;;;;;33.53;7.32;;;;;;;7.08;70.49;102398.72;4436435;32;20105;-75
2021/03/18 02:09:38;;;;;;;25.37;6.32;;;;;;;7.19;70.44;102385.72;4433329;32;20106;-75
2021/03/18 02:12:04;;;;;;;26.33;7.10;;;;;;;7.23;70.51;102403.37;4433247;32;20037;-76
2021/03/18 02:14:30;;;;;;;25.52;5.97;;;;;;;7.26;70.44;102401.81;4435016;32;20111;-76
2021/03/18 02:16:58;;;;;;;26.90;6.12;;;;;;;7.25;70.23;102387.03;4431273;32;20022;-75
2021/03/18 02:24:46;;;;;;;31.23;6.90;;;;;;;7.57;69.09;102379.06;3986554;32;15022008;-75
2021/03/18 02:35:57;;;;;;;30.20;6.32;;;;;;;7.58;68.89;102375.91;3979149;31;15707882;-77
2021/03/18 02:38:45;;;;;;;27.90;6.10;;;;;;;7.58;68.89;102375.91;4458463;32;20105;-76
2021/03/18 02:41:21;;;;;;;36.72;6.30;;;;;;;7.11;69.84;102366.38;4458671;32;20511;-75
2021/03/18 02:44:02;;;;;;;32.25;6.05;;;;;;;7.03;70.09;102359.06;4458871;32;20433;-77
2021/03/18 02:46:28;;;;;;;31.90;6.95;;;;;;;6.94;70.33;102352.91;4458653;32;20057;-76
2021/03/18 02:49:00;;;;;;;24.33;5.18;;;;;;;6.75;71.33;102358.59;4458451;32;20029;-77
2021/03/18 02:51:28;;;;;;;33.05;6.05;;;;;;;6.81;71.53;102362.69;4456962;32;20100;-76
2021/03/18 02:53:54;;;;;;;31.17;5.35;;;;;;;6.76;71.58;102355.41;4458730;32;20081;-76
2021/03/18 02:56:21;;;;;;;22.65;5.75;;;;;;;6.88;71.34;102368.41;4459552;32;20429;-75
2021/03/18 02:58:51;;;;;;;36.78;7.28;;;;;;;6.88;71.00;102360.00;4442221;32;20080;-76
2021/03/18 03:01:18;;;;;;;33.60;6.00;;;;;;;6.89;71.39;102361.59;4455526;32;20034;-76
2021/03/18 03:03:46;;;;;;;21.70;5.93;;;;;;;6.96;71.07;102353.34;4448161;32;20080;-76
2021/03/18 03:06:14;;;;;;;27.67;5.75;;;;;;;7.00;71.09;102351.41;4448480;32;20057;-76
2021/03/18 03:08:40;;;;;;;30.50;5.95;;;;;;;6.95;70.86;102349.75;4432229;32;20104;-77
2021/03/18 03:11:07;;;;;;;25.05;5.75;;;;;;;6.89;70.74;102336.41;4447727;32;20511;-76
2021/03/18 03:13:38;;;;;;;22.70;6.22;;;;;;;7.01;70.81;102337.03;4450193;32;20042;-76
2021/03/18 03:16:07;;;;;;;29.77;5.45;;;;;;;7.02;70.71;102333.03;4448902;32;20082;-75
2021/03/18 03:18:34;;;;;;;23.92;5.25;;;;;;;6.97;71.01;102330.56;4451252;32;20084;-76
2021/03/18 03:21:00;;;;;;;33.47;5.62;;;;;;;6.94;70.92;102328.53;4448315;32;20131;-76
2021/03/18 03:23:28;;;;;;;34.40;10.82;;;;;;;6.97;71.02;102335.37;4451859;32;20028;-77
2021/03/18 03:25:56;;;;;;;26.55;5.43;;;;;;;7.00;70.87;102331.81;4447583;32;20032;-76
2021/03/18 03:28:24;;;;;;;27.20;5.43;;;;;;;6.93;70.95;102323.31;4447826;32;20041;-76
2021/03/18 03:30:50;;;;;;;29.63;6.00;;;;;;;6.81;71.33;102324.31;4449206;32;21804;-76
2021/03/18 03:33:15;;;;;;;29.00;5.55;;;;;;;6.93;71.00;102331.72;4448911;32;20085;-75
2021/03/18 03:35:41;;;;;;;30.20;5.37;;;;;;;6.96;70.86;102325.37;4444819;32;20076;-74
2021/03/18 03:38:07;;;;;;;30.05;5.85;;;;;;;6.96;70.74;102319.75;4432544;32;20045;-75
2021/03/18 03:40:34;;;;;;;26.08;5.70;;;;;;;6.83;70.95;102316.34;4447941;32;20085;-75
2021/03/18 03:43:00;;;;;;;24.73;5.65;;;;;;;6.86;71.08;102312.00;4447726;32;20075;-74
2021/03/18 03:45:26;;;;;;;27.35;5.65;;;;;;;6.81;71.17;102315.91;4448197;32;20138;-76
2021/03/18 03:47:52;;;;;;;26.35;5.47;;;;;;;6.69;71.11;102316.09;4437188;32;20041;-74
2021/03/18 03:50:21;;;;;;;35.35;5.22;;;;;;;6.67;71.43;102303.69;4436598;32;20074;-76
2021/03/18 04:00:48;;;;;;;28.23;5.97;;;;;;;6.99;70.60;102291.81;3980848;32;15022285;-76
2021/03/18 04:03:15;;;;;;;20.42;5.78;;;;;;;6.99;70.60;102291.81;4427700;32;20043;-76
2021/03/18 04:05:45;;;;;;;32.13;6.70;;;;;;;6.53;71.65;102293.06;4429980;32;20103;-75
2021/03/18 04:08:13;;;;;;;24.52;5.65;;;;;;;6.56;71.87;102300.69;4441450;32;20084;-75
2021/03/18 04:10:42;;;;;;;25.00;5.53;;;;;;;6.57;72.05;102291.16;4429943;32;20014;-75
2021/03/18 04:13:11;;;;;;;27.37;5.72;;;;;;;6.57;71.96;102298.72;4430830;32;20078;-76
2021/03/18 04:15:41;;;;;;;33.85;5.70;;;;;;;6.48;72.34;102290.59;4432517;32;20356;-75
2021/03/18 04:18:09;;;;;;;27.77;5.72;;;;;;;6.60;71.67;102292.38;4432401;32;20062;-76
2021/03/18 04:20:38;;;;;;;18.67;5.10;;;;;;;6.59;71.58;102291.56;4430451;32;20050;-75
2021/03/18 04:23:08;;;;;;;32.42;6.32;;;;;;;6.64;71.39;102284.84;4429336;32;20108;-75
2021/03/18 04:25:35;;;;;;;28.00;6.03;;;;;;;6.64;70.74;102282.06;4430028;32;20141;-75
2021/03/18 04:28:02;;;;;;;28.85;6.07;;;;;;;6.55;71.21;102289.88;4434357;32;20078;-75
2021/03/18 04:30:30;;;;;;;32.83;6.75;;;;;;;6.63;71.58;102284.03;4431031;32;20060;-75
2021/03/18 04:32:57;;;;;;;31.05;6.03;;;;;;;6.64;71.49;102293.25;4434068;32;20102;-75
2021/03/18 04:35:24;;;;;;;26.17;6.43;;;;;;;6.64;71.76;102296.84;4430135;32;20079;-75
2021/03/18 04:37:50;;;;;;;24.92;5.70;;;;;;;6.67;71.86;102304.50;4432629;32;20058;-76
2021/03/18 04:40:19;;;;;;;29.02;6.45;;;;;;;6.72;71.53;102298.56;4429553;32;20117;-75
2021/03/18 04:42:46;;;;;;;31.73;6.22;;;;;;;6.68;71.23;102306.09;4429074;32;20490;-75
2021/03/18 04:45:14;;;;;;;25.67;5.93;;;;;;;6.77;71.35;102303.84;4434581;32;20074;-76
2021/03/18 04:47:42;;;;;;;30.35;6.28;;;;;;;6.80;71.33;102303.09;4431771;32;20034;-75
2021/03/18 04:50:12;;;;;;;29.77;6.05;;;;;;;6.89;70.99;102303.66;4433181;32;20090;-76
2021/03/18 04:52:40;;;;;;;28.35;6.05;;;;;;;7.05;70.97;102312.69;4429174;32;20361;-76
2021/03/18 04:55:09;;;;;;;27.05;6.00;;;;;;;7.17;70.66;102311.66;4430480;32;20033;-75
2021/03/18 04:57:37;;;;;;;30.10;5.32;;;;;;;7.31;70.25;102306.28;4422576;32;20099;-76
2021/03/18 05:00:05;;;;;;;28.02;6.55;;;;;;;7.24;69.74;102315.38;4428592;32;20419;-75
2021/03/18 05:02:32;;;;;;;25.95;6.85;;;;;;;7.38;69.87;102320.38;4429149;32;20181;-76
2021/03/18 05:05:00;;;;;;;24.08;6.22;;;;;;;7.45;69.62;102318.50;4429831;32;20055;-76
2021/03/18 05:07:28;;;;;;;34.95;7.60;;;;;;;7.57;69.01;102314.63;4433417;32;20043;-76
2021/03/18 05:09:55;;;;;;;40.92;7.80;;;;;;;7.56;68.40;102316.66;4431082;32;20073;-76
2021/03/18 05:12:21;;;;;;;27.02;6.53;;;;;;;7.63;68.41;102318.72;4421772;32;20344;-76
2021/03/18 05:14:47;;;;;;;34.28;7.28;;;;;;;7.71;68.28;102312.03;4421943;32;20092;-76
2021/03/18 05:17:16;;;;;;;30.65;6.47;;;;;;;7.71;68.01;102312.81;4422406;32;20054;-76
2021/03/18 05:19:43;;;;;;;22.98;5.85;;;;;;;7.80;68.28;102315.34;4419533;32;20373;-75
2021/03/18 05:22:10;;;;;;;26.02;6.85;;;;;;;7.70;67.93;102316.81;4420753;32;20022;-76
2021/03/18 05:24:38;;;;;;;30.77;7.43;;;;;;;7.76;68.70;102312.50;4420572;32;20038;-75
2021/03/18 05:27:05;;;;;;;36.10;7.12;;;;;;;7.84;68.04;102311.41;4418597;32;20074;-76
2021/03/18 05:29:30;;;;;;;35.38;7.95;;;;;;;7.92;68.43;102307.47;4420380;32;20419;-76
2021/03/18 05:31:56;;;;;;;26.05;7.43;;;;;;;7.96;68.51;102313.97;4419365;32;20096;-75
2021/03/18 05:34:22;;;;;;;29.58;7.05;;;;;;;7.94;68.53;102321.94;4412965;32;20070;-75
2021/03/18 05:36:48;;;;;;;28.23;8.93;;;;;;;8.02;69.53;102314.41;4418672;32;20134;-76
2021/03/18 05:39:13;;;;;;;32.92;6.50;;;;;;;8.02;69.28;102320.03;4417916;32;20056;-75
2021/03/18 05:41:39;;;;;;;23.95;6.70;;;;;;;8.02;69.32;102311.59;4420754;32;20408;-76
2021/03/18 05:44:07;;;;;;;32.28;7.15;;;;;;;8.04;70.15;102310.03;4421936;32;20052;-76
2021/03/18 05:46:34;;;;;;;25.48;7.18;;;;;;;8.06;70.13;102313.25;4423025;32;20358;-76
2021/03/18 05:49:01;;;;;;;24.63;7.12;;;;;;;8.09;69.86;102312.50;4417470;32;20073;-75
2021/03/18 05:51:30;;;;;;;29.52;6.93;;;;;;;8.11;69.37;102298.88;4418358;32;20026;-75
2021/03/18 05:53:57;;;;;;;25.33;6.82;;;;;;;8.34;69.73;102303.56;4418913;32;20018;-74
2021/03/18 05:56:24;;;;;;;23.45;6.07;;;;;;;8.34;69.45;102301.56;4422401;32;20096;-75
2021/03/18 05:58:50;;;;;;;29.25;6.32;;;;;;;8.43;69.41;102301.25;4419336;32;20108;-75
2021/03/18 06:01:18;;;;;;;29.90;6.03;;;;;;;8.60;69.48;102290.19;4420421;32;20433;-75
2021/03/18 06:03:45;;;;;;;32.33;6.65;;;;;;;8.72;69.19;102283.47;4422341;32;20034;-75
2021/03/18 06:06:10;;;;;;;20.15;6.45;;;;;;;8.78;69.00;102284.72;4417661;32;20426;-75
2021/03/18 06:08:37;;;;;;;36.72;7.22;;;;;;;8.82;68.59;102277.13;4418683;32;20112;-75
2021/03/18 06:11:05;;;;;;;29.48;7.97;;;;;;;8.94;68.06;102285.25;4420047;32;20038;-76
2021/03/18 06:13:31;;;;;;;33.63;7.00;;;;;;;9.06;68.03;102276.50;4421192;32;20090;-76
2021/03/18 06:15:57;;;;;;;33.78;6.93;;;;;;;9.08;67.95;102269.28;4417630;32;20069;-76
2021/03/18 06:18:23;;;;;;;32.40;7.55;;;;;;;9.15;67.59;102274.97;4418650;32;20035;-75
2021/03/18 06:20:52;;;;;;;31.27;6.82;;;;;;;9.14;67.70;102267.72;4419824;32;20026;-76
2021/03/18 06:23:18;;;;;;;23.52;6.60;;;;;;;9.12;67.43;102275.75;4418279;32;20107;-76
2021/03/18 06:25:45;;;;;;;29.80;8.25;;;;;;;9.16;67.49;102278.56;4418012;32;20145;-76
2021/03/18 06:33:34;;;;;;;28.60;7.93;;;;;;;9.99;66.61;102263.28;3987100;32;15022143;-75
2021/03/18 06:36:00;;;;;;;29.80;8.13;;;;;;;9.99;66.61;102263.28;4435320;32;20080;-75
2021/03/18 06:38:27;;;;;;;32.35;8.00;;;;;;;9.56;67.38;102262.34;4437128;32;20101;-75
2021/03/18 06:40:53;;;;;;;31.77;7.47;;;;;;;9.65;67.41;102265.59;4437592;32;20094;-74
2021/03/18 06:43:34;;;;;;;31.52;8.10;;;;;;;9.70;67.32;102264.41;4436074;32;20068;-76
2021/03/18 06:46:13;;;;;;;24.80;8.52;;;;;;;9.82;66.99;102256.41;4437160;32;20029;-75
2021/03/18 06:48:39;;;;;;;28.33;9.38;;;;;;;9.88;66.80;102248.41;4436272;32;20022;-75
2021/03/18 06:51:15;;;;;;;39.85;9.65;;;;;;;9.95;66.51;102257.63;4440047;32;20110;-75
2021/03/18 06:53:41;;;;;;;37.38;8.75;;;;;;;10.12;66.66;102252.50;4436696;32;20073;-75
2021/03/18 06:56:18;;;;;;;31.92;9.10;;;;;;;10.16;66.46;102258.94;4439150;32;20111;-76
2021/03/18 06:58:44;;;;;;;29.48;9.15;;;;;;;10.29;66.12;102258.16;4436721;32;20463;-75
2021/03/18 07:01:10;;;;;;;37.45;9.20;;;;;;;10.32;65.64;102262.16;4435322;32;20106;-75
2021/03/18 07:03:37;;;;;;;34.58;8.65;;;;;;;10.41;65.56;102266.22;4430434;32;20133;-75
2021/03/18 07:06:06;;;;;;;33.78;8.82;;;;;;;10.51;64.85;102265.41;4432275;32;20411;-75
2021/03/18 07:08:34;;;;;;;37.03;8.50;;;;;;;10.60;64.79;102265.81;4437355;32;20045;-75
2021/03/18 07:11:13;;;;;;;36.03;7.90;;;;;;;10.67;64.31;102267.81;4434425;32;20205;-75
2021/03/18 07:13:42;;;;;;;27.90;7.05;;;;;;;10.78;64.25;102274.25;4434860;32;20041;-74
2021/03/18 07:16:08;;;;;;;42.25;7.93;;;;;;;10.85;63.97;102275.06;4432301;32;20065;-75
2021/03/18 07:18:36;;;;;;;35.75;6.57;;;;;;;10.90;63.40;102271.03;4432784;32;20453;-74
2021/03/18 07:26:23;;;;;;;32.80;6.03;;;;;;;11.59;61.16;102257.94;4010173;31;15017882;-77
2021/03/18 07:28:50;;;;;;;;;;;;;;;11.23;62.36;102248.03;4463919;32;20081;-77
2021/03/18 07:31:18;;;;;;;27.77;5.20;;;;;;;11.46;61.96;102253.97;4448123;32;20973;-76
2021/03/18 07:33:45;;;;;;;27.83;5.32;;;;;;;11.50;61.65;102252.75;4467359;32;20068;-77
2021/03/18 07:36:12;;;;;;;29.80;6.35;;;;;;;11.52;61.15;102246.72;4458126;32;20409;-76
2021/03/18 07:38:39;;;;;;;23.02;5.45;;;;;;;11.61;61.44;102250.72;4464025;32;20099;-76
2021/03/18 07:41:12;;;;;;;31.73;7.05;;;;;;;11.70;61.23;102244.66;4455472;32;20076;-77
2021/03/18 07:43:39;;;;;;;22.08;4.93;;;;;;;11.83;60.80;102237.31;4461691;32;20083;-77
2021/03/18 07:46:05;;;;;;;29.63;5.35;;;;;;;11.94;60.63;102238.09;4457378;32;20068;-77
2021/03/18 07:48:33;;;;;;;29.45;5.22;;;;;;;12.03;60.67;102239.22;4461353;32;20140;-77
2021/03/18 07:51:01;;;;;;;32.47;6.47;;;;;;;12.17;60.41;102243.16;4453557;32;20095;-79
2021/03/18 07:53:29;;;;;;;28.52;4.80;;;;;;;12.18;60.44;102239.94;4464760;32;20088;-78
2021/03/18 07:55:56;;;;;;;27.87;5.15;;;;;;;12.23;59.98;102230.22;4461575;32;20488;-79
2021/03/18 07:58:43;;;;;;;26.45;4.62;;;;;;;12.26;60.13;102224.56;4460181;32;20072;-79
2021/03/18 08:04:09;;;;;;;29.70;5.28;;;;;;;12.52;59.66;102232.41;3976774;32;15024131;-79
2021/03/18 08:12:02;;;;;;;36.13;5.72;;;;;;;13.16;58.22;102227.78;3977157;32;15023715;-80
2021/03/18 08:14:28;;;;;;;36.92;5.80;;;;;;;13.16;58.22;102227.78;4427376;32;20066;-79
2021/03/18 08:16:54;;;;;;;28.27;4.47;;;;;;;12.85;59.04;102228.88;4427707;32;20108;-78
2021/03/18 08:19:20;;;;;;;30.90;4.97;;;;;;;12.92;58.37;102222.38;4431006;32;20069;-77
2021/03/18 08:21:49;;;;;;;30.00;4.80;;;;;;;12.99;58.44;102228.78;4430584;32;20091;-76
2021/03/18 08:24:22;;;;;;;26.40;4.95;;;;;;;13.35;57.37;102221.50;4433627;32;20147;-77
2021/03/18 08:26:50;;;;;;;34.95;5.03;;;;;;;13.21;57.47;102216.03;4431250;32;20029;-79
2021/03/18 08:29:41;;;;;;;28.67;5.55;;;;;;;13.44;56.79;102215.34;4427490;32;20075;-78
2021/03/18 08:32:25;;;;;;;30.73;5.12;;;;;;;13.61;56.51;102219.97;4428960;32;20454;-79
2021/03/18 08:37:44;;;;;;;30.65;5.97;;;;;;;14.26;54.94;102221.50;3977828;32;15028575;-79
2021/03/18 08:42:47;;;;;;;26.33;4.97;;;;;;;14.32;54.90;102225.44;3941776;32;15730287;-80
2021/03/18 08:48:06;;;;;;;35.72;4.97;;;;;;;14.55;54.28;102216.97;3977693;32;15026815;-78
2021/03/18 08:53:26;;;;;;;21.75;4.85;;;;;;;14.86;53.37;102204.28;3974354;31;15708089;-80
2021/03/18 08:55:52;;;;;;;34.08;5.25;;;;;;;14.86;53.37;102204.28;4449882;32;20102;-79
2021/03/18 08:58:18;;;;;;;27.90;5.07;;;;;;;14.62;53.74;102203.50;4440008;32;20461;-79
2021/03/18 09:00:46;;;;;;;25.55;4.62;;;;;;;14.49;53.27;102198.88;4444065;32;20453;-79
2021/03/18 09:03:15;;;;;;;30.23;5.05;;;;;;;14.52;54.02;102198.00;4444480;32;20072;-79
2021/03/18 09:05:51;;;;;;;22.87;4.25;;;;;;;14.67;53.97;102200.16;4426448;32;20085;-79
2021/03/18 09:08:23;;;;;;;21.00;3.92;;;;;;;14.74;53.25;102185.87;4440859;32;20107;-80
2021/03/18 09:10:49;;;;;;;36.00;5.22;;;;;;;14.78;53.11;102200.78;4445214;32;20488;-80
2021/03/18 09:13:18;;;;;;;24.52;4.45;;;;;;;14.95;53.30;102196.81;4445566;32;20088;-77
2021/03/18 09:15:46;;;;;;;25.12;4.10;;;;;;;14.87;53.08;102208.72;4444105;32;20450;-78
2021/03/18 09:21:07;;;;;;;28.43;5.40;;;;;;;15.51;51.36;102221.25;3991446;31;15016586;-79
2021/03/18 09:23:37;;;;;;;18.70;4.05;;;;;;;15.51;51.36;102221.25;4450687;32;20587;-80
2021/03/18 09:26:08;;;;;;;17.10;3.92;;;;;;;14.98;52.58;102221.47;4447586;32;20476;-78
2021/03/18 09:28:36;;;;;;;28.95;4.50;;;;;;;15.10;52.67;102220.03;4448264;32;20292;-79
2021/03/18 09:31:03;;;;;;;23.48;4.32;;;;;;;15.24;52.03;102228.25;4447299;32;20103;-80
2021/03/18 09:33:41;;;;;;;20.98;4.47;;;;;;;15.38;52.28;102228.00;4448481;32;20041;-78
2021/03/18 09:41:44;;;;;;;26.52;5.20;;;;;;;15.61;51.94;102228.72;3979825;32;15024675;-78
2021/03/18 09:44:13;;;;;;;24.70;4.70;;;;;;;15.61;51.94;102228.72;4434114;32;20107;-77
2021/03/18 09:46:42;;;;;;;25.55;4.35;;;;;;;15.27;52.39;102224.53;4439128;32;20072;-77
2021/03/18 09:49:08;;;;;;;23.85;3.90;;;;;;;15.38;52.29;102220.31;4435183;32;20088;-78
2021/03/18 09:51:36;;;;;;;26.15;4.15;;;;;;;15.37;52.70;102215.84;4437904;32;20546;-78
2021/03/18 09:54:05;;;;;;;16.62;3.10;;;;;;;15.47;52.27;102214.81;4436299;32;20065;-78
2021/03/18 09:56:46;;;;;;;26.70;4.20;;;;;;;15.54;51.88;102216.72;4435900;32;20053;-77
2021/03/18 09:59:12;;;;;;;17.70;4.03;;;;;;;15.74;51.45;102206.19;4440395;32;20099;-78
2021/03/18 10:01:38;;;;;;;28.17;3.95;;;;;;;15.60;51.11;102198.75;4434099;32;20866;-77
2021/03/18 10:04:07;;;;;;;22.48;4.28;;;;;;;15.76;51.20;102198.00;4429963;32;20080;-76
2021/03/18 10:06:37;;;;;;;18.80;3.80;;;;;;;15.55;49.96;102206.97;4433166;32;20064;-82
2021/03/18 10:17:14;;;;;;;26.05;4.25;;;;;;;15.48;49.95;102173.88;3979270;32;15023378;-78
2021/03/18 10:19:45;;;;;;;25.35;4.05;;;;;;;15.48;49.95;102173.88;4427965;32;20041;-78
2021/03/18 10:22:12;;;;;;;27.25;4.12;;;;;;;15.00;50.85;102176.47;4428092;32;20022;-78
2021/03/18 10:24:38;;;;;;;19.77;4.30;;;;;;;15.29;50.25;102177.50;4428275;32;20110;-77
2021/03/18 10:27:13;;;;;;;21.35;4.05;;;;;;;15.56;49.41;102169.63;4421827;32;20550;-78
2021/03/18 10:29:39;;;;;;;25.60;4.55;;;;;;;15.77;48.83;102159.84;4428496;32;20098;-77
2021/03/18 10:32:07;;;;;;;20.02;4.50;;;;;;;15.95;48.53;102160.25;4428093;32;20129;-77
2021/03/18 10:34:33;;;;;;;22.45;4.30;;;;;;;16.31;47.69;102171.53;4420835;32;20099;-78
2021/03/18 10:36:58;;;;;;;26.92;4.75;;;;;;;16.37;47.32;102170.56;4420212;32;20317;-77
2021/03/18 10:39:24;;;;;;;28.35;5.18;;;;;;;16.33;46.37;102169.88;4420947;32;20637;-77
2021/03/18 10:44:35;;;;;;;24.05;5.50;;;;;;;16.45;46.44;102160.66;3946169;32;15747307;-79
2021/03/18 10:47:18;;;;;;;21.52;4.68;;;;;;;16.57;46.03;102159.91;4423933;32;20473;-79
2021/03/18 10:50:05;;;;;;;28.05;5.68;;;;;;;16.79;45.98;102158.13;4424466;32;20133;-78
2021/03/18 10:52:32;;;;;;;23.20;4.65;;;;;;;16.73;45.97;102162.75;4425943;32;20038;-81
2021/03/18 10:54:58;;;;;;;24.00;4.97;;;;;;;16.97;45.45;102154.81;4422188;32;20038;-79
2021/03/18 10:57:26;;;;;;;25.40;5.15;;;;;;;16.93;45.09;102143.50;4424093;32;20071;-78
2021/03/18 11:02:31;;;;;;;25.95;5.70;;;;;;;18.14;43.07;102147.16;3966416;32;15023847;-78
2021/03/18 11:05:00;;;;;;;22.48;5.40;;;;;;;18.14;43.07;102147.16;4417550;32;20140;-80
2021/03/18 11:07:27;;;;;;;19.80;4.90;;;;;;;17.97;42.60;102142.84;4419606;32;20088;-82
2021/03/18 11:10:14;;;;;;;24.98;5.25;;;;;;;18.08;42.21;102144.09;4417563;32;20094;-79
2021/03/18 11:12:40;;;;;;;24.33;5.55;;;;;;;18.50;41.59;102142.69;4420454;32;20102;-77
2021/03/18 11:15:09;;;;;;;22.75;5.10;;;;;;;18.44;41.40;102135.97;4419133;32;20509;-77
2021/03/18 11:17:36;;;;;;;24.70;5.37;;;;;;;18.57;41.29;102138.81;4419654;32;20965;-76
2021/03/18 11:22:55;;;;;;;18.70;4.97;;;;;;;19.09;40.36;102128.31;3970345;32;15024189;-78
2021/03/18 11:25:21;;;;;;;23.58;5.90;;;;;;;19.09;40.36;102128.31;4417280;32;21146;-76
2021/03/18 11:27:51;;;;;;;17.37;5.35;;;;;;;18.54;41.14;102117.72;4417583;32;20042;-75
2021/03/18 11:30:32;;;;;;;21.98;5.32;;;;;;;18.61;41.26;102116.66;4418012;32;20082;-77
2021/03/18 11:33:17;;;;;;;17.37;5.40;;;;;;;18.33;41.46;102123.31;4410551;32;20430;-76
2021/03/18 11:35:46;;;;;;;23.05;6.15;;;;;;;17.91;42.34;102113.34;4421483;32;20049;-77
2021/03/18 11:38:13;;;;;;;20.95;6.10;;;;;;;17.66;43.07;102106.38;4417981;32;20059;-77
2021/03/18 11:40:41;;;;;;;25.77;5.72;;;;;;;17.87;42.98;102091.47;4416764;32;20122;-77
2021/03/18 11:43:08;;;;;;;19.12;5.93;;;;;;;17.82;42.81;102097.72;4415524;32;20065;-76
2021/03/18 11:45:34;;;;;;;19.92;5.75;;;;;;;18.09;42.92;102090.75;4420128;32;20115;-76
2021/03/18 11:48:01;;;;;;;22.17;5.50;;;;;;;18.25;42.25;102082.06;4416188;32;20181;-76
2021/03/18 11:50:27;;;;;;;25.23;5.97;;;;;;;18.03;42.70;102081.19;4418244;32;20073;-75
2021/03/18 11:52:53;;;;;;;22.00;5.22;;;;;;;18.28;42.33;102075.47;4416903;32;20078;-76
2021/03/18 11:55:20;;;;;;;15.77;5.35;;;;;;;17.97;42.47;102074.50;4419009;32;20519;-75
2021/03/18 11:57:47;;;;;;;19.20;5.00;;;;;;;17.67;43.71;102061.63;4417305;32;20434;-75
2021/03/18 12:00:14;;;;;;;24.27;5.05;;;;;;;17.90;43.03;102069.81;4415332;32;20073;-78
2021/03/18 12:02:40;;;;;;;21.08;5.47;;;;;;;17.83;43.06;102067.22;4413154;32;20046;-76
2021/03/18 12:05:07;;;;;;;22.87;4.62;;;;;;;18.05;42.96;102055.88;4411861;32;20073;-75
2021/03/18 12:07:33;;;;;;;16.27;4.00;;;;;;;18.13;42.63;102060.87;4411748;32;20400;-76
2021/03/18 12:09:58;;;;;;;20.77;4.20;;;;;;;17.93;42.82;102060.34;4413436;32;20126;-76
2021/03/18 12:12:24;;;;;;;14.68;4.20;;;;;;;18.21;42.54;102048.00;4406759;32;20158;-76
2021/03/18 12:14:50;;;;;;;19.55;4.18;;;;;;;18.68;42.22;102045.91;4412731;32;20078;-78
2021/03/18 12:17:16;;;;;;;24.15;4.28;;;;;;;18.91;41.53;102041.81;4411051;32;21191;-75
2021/03/18 12:19:41;;;;;;;23.30;5.00;;;;;;;19.09;40.96;102044.78;4414987;32;20390;-75
2021/03/18 12:22:07;;;;;;;20.23;3.95;;;;;;;19.35;40.71;102038.44;4415086;32;20725;-77
2021/03/18 12:24:34;;;;;;;27.62;4.75;;;;;;;19.68;40.41;102030.19;4409025;32;20421;-76
2021/03/18 12:27:04;;;;;;;17.65;4.20;;;;;;;19.31;40.78;102025.59;4411865;32;20481;-75
2021/03/18 12:29:30;;;;;;;17.87;4.20;;;;;;;19.40;40.62;102039.91;4414639;32;20088;-78
2021/03/18 12:31:56;;;;;;;15.15;4.35;;;;;;;19.26;41.23;102031.84;4416165;32;20088;-75
2021/03/18 12:34:23;;;;;;;12.90;3.67;;;;;;;19.50;40.69;102021.53;4407166;32;20077;-75
2021/03/18 12:36:49;;;;;;;16.62;4.60;;;;;;;19.55;40.89;102015.22;4404050;32;20073;-75
2021/03/18 12:39:15;;;;;;;16.70;5.10;;;;;;;19.39;41.36;102012.63;4401750;32;20201;-75
2021/03/18 12:41:41;;;;;;;14.82;4.85;;;;;;;19.45;41.42;102008.69;4406111;32;20683;-75
2021/03/18 12:44:07;;;;;;;17.75;5.07;;;;;;;19.48;41.19;102006.94;4405877;32;20524;-76